createdAt,value
2023-03-17T00:00:00.540Z,48.0
2023-03-17T00:01:00.815Z,36.1
2023-03-17T00:02:00.582Z,36.1
2023-03-17T00:03:01.256Z,36.1
2023-03-17T00:04:00.753Z,36.1
2023-03-17T00:05:00.621Z,36.1
2023-03-17T00:06:01.164Z,36.3
2023-03-17T00:07:00.586Z,36.3
2023-03-17T00:08:10.415Z,36.3
2023-03-17T00:09:00.812Z,36.3
2023-03-17T00:10:00.530Z,36.3
2023-03-17T00:11:01.224Z,36.0
2023-03-17T00:12:00.553Z,36.0
2023-03-17T00:13:00.524Z,36.0
2023-03-17T00:14:00.544Z,36.0
2023-03-17T00:15:00.540Z,36.0
2023-03-17T00:16:03.204Z,33.9
2023-03-17T00:17:00.660Z,33.9
2023-03-17T00:18:00.587Z,33.9
2023-03-17T00:19:00.729Z,33.9
2023-03-17T00:20:00.689Z,33.9
2023-03-17T00:21:00.668Z,33.0
2023-03-17T00:22:02.263Z,33.0
2023-03-17T00:23:01.662Z,33.0
2023-03-17T00:24:00.725Z,33.0
2023-03-17T00:25:00.791Z,33.0
2023-03-17T00:26:00.560Z,34.2
2023-03-17T00:27:00.859Z,34.2
2023-03-17T00:28:01.261Z,34.2
2023-03-17T00:29:00.516Z,34.2
2023-03-17T00:30:00.526Z,34.2
2023-03-17T00:31:00.751Z,34.9
2023-03-17T00:32:00.618Z,34.9
2023-03-17T00:33:00.585Z,34.9
2023-03-17T00:34:00.671Z,34.9
2023-03-17T00:35:00.585Z,34.9
2023-03-17T00:36:00.765Z,30.8
2023-03-17T00:37:00.516Z,30.8
2023-03-17T00:38:00.572Z,30.8
2023-03-17T00:39:00.595Z,30.8
2023-03-17T00:40:00.565Z,30.8
2023-03-17T00:41:00.528Z,30.0
2023-03-17T00:42:00.532Z,30.0
2023-03-17T00:43:00.561Z,30.0
2023-03-17T00:44:00.538Z,30.0
2023-03-17T00:45:00.520Z,30.0
2023-03-17T00:46:00.712Z,33.8
2023-03-17T00:47:00.943Z,33.8
2023-03-17T00:48:00.678Z,33.8
2023-03-17T00:49:02.001Z,33.8
2023-03-17T00:50:00.630Z,33.8
2023-03-17T00:51:00.552Z,32.4
2023-03-17T00:52:00.578Z,32.4
2023-03-17T00:53:00.549Z,32.4
2023-03-17T00:54:00.580Z,32.4
2023-03-17T00:55:00.600Z,32.4
2023-03-17T00:56:00.877Z,38.1
2023-03-17T00:57:00.564Z,38.1
2023-03-17T00:58:00.677Z,38.1
2023-03-17T00:59:00.753Z,38.1
2023-03-17T01:00:01.035Z,38.1
2023-03-17T01:01:00.787Z,38.6
2023-03-17T01:02:00.541Z,38.6
2023-03-17T01:03:00.546Z,38.6
2023-03-17T01:04:00.553Z,38.6
2023-03-17T01:05:06.332Z,38.6
2023-03-17T01:06:02.772Z,37.8
2023-03-17T01:07:00.574Z,37.8
2023-03-17T01:08:00.776Z,37.8
2023-03-17T01:09:00.572Z,37.8
2023-03-17T01:10:00.585Z,37.8
2023-03-17T01:11:00.511Z,38.7
2023-03-17T01:12:00.533Z,38.7
2023-03-17T01:13:00.579Z,38.7
2023-03-17T01:14:00.560Z,38.7
2023-03-17T01:15:00.560Z,38.7
2023-03-17T01:16:00.639Z,36.1
2023-03-17T01:17:00.535Z,36.1
2023-03-17T01:18:01.182Z,36.1
2023-03-17T01:19:00.608Z,36.1
2023-03-17T01:20:01.482Z,36.1
2023-03-17T01:21:00.647Z,32.3
2023-03-17T01:22:00.534Z,32.3
2023-03-17T01:23:00.745Z,32.3
2023-03-17T01:24:00.584Z,32.3
2023-03-17T01:25:00.561Z,32.3
2023-03-17T01:26:00.621Z,32.9
2023-03-17T01:27:00.763Z,32.9
2023-03-17T01:28:00.579Z,32.9
2023-03-17T01:29:00.680Z,32.9
2023-03-17T01:30:00.649Z,32.9
2023-03-17T01:31:00.677Z,36.3
2023-03-17T01:32:00.627Z,36.3
2023-03-17T01:33:01.298Z,36.3
2023-03-17T01:34:00.559Z,36.3
2023-03-17T01:35:00.538Z,36.3
2023-03-17T01:36:00.865Z,34.7
2023-03-17T01:37:00.544Z,34.7
2023-03-17T01:38:00.595Z,34.7
2023-03-17T01:39:00.802Z,34.7
2023-03-17T01:40:00.593Z,32.1
2023-03-17T01:41:00.554Z,32.1
2023-03-17T01:42:00.563Z,32.1
2023-03-17T01:43:01.586Z,32.1
2023-03-17T01:44:00.566Z,32.1
2023-03-17T01:45:07.859Z,36.2
2023-03-17T01:46:14.991Z,36.2
2023-03-17T01:47:00.524Z,36.2
2023-03-17T01:48:00.552Z,36.2
2023-03-17T01:49:05.922Z,36.2
2023-03-17T01:50:07.584Z,31.3
2023-03-17T01:51:00.799Z,31.3
2023-03-17T01:52:07.029Z,31.3
2023-03-17T01:53:00.580Z,31.3
2023-03-17T01:54:03.759Z,31.3
2023-03-17T01:55:04.843Z,29.8
2023-03-17T01:56:02.422Z,29.8
2023-03-17T01:57:07.261Z,29.8
2023-03-17T01:58:00.672Z,29.8
2023-03-17T01:59:03.394Z,29.8
2023-03-17T02:00:03.255Z,33.1
2023-03-17T02:01:00.648Z,33.1
2023-03-17T02:02:05.317Z,33.1
2023-03-17T02:03:00.541Z,33.1
2023-03-17T02:04:01.502Z,33.1
2023-03-17T02:05:02.625Z,32.0
2023-03-17T02:06:01.891Z,32.0
2023-03-17T02:07:02.296Z,32.0
2023-03-17T02:08:00.599Z,32.0
2023-03-17T02:09:00.765Z,32.0
2023-03-17T02:10:03.066Z,29.8
2023-03-17T02:11:00.688Z,29.8
2023-03-17T02:12:01.572Z,29.8
2023-03-17T02:13:01.592Z,29.8
2023-03-17T02:14:00.755Z,29.8
2023-03-17T02:15:01.110Z,29.2
2023-03-17T02:16:00.577Z,29.2
2023-03-17T02:17:00.817Z,29.2
2023-03-17T02:18:00.550Z,29.2
2023-03-17T02:19:00.615Z,29.2
2023-03-17T02:20:17.850Z,29.4
2023-03-17T02:21:20.447Z,29.4
2023-03-17T02:22:00.817Z,29.4
2023-03-17T02:23:01.329Z,29.4
2023-03-17T02:24:04.337Z,29.4
2023-03-17T02:25:00.827Z,33.4
2023-03-17T02:26:00.670Z,33.4
2023-03-17T02:27:07.203Z,33.4
2023-03-17T02:28:07.028Z,33.4
2023-03-17T02:29:00.644Z,33.4
2023-03-17T02:30:01.443Z,31.8
2023-03-17T02:31:00.550Z,31.8
2023-03-17T02:32:01.358Z,31.8
2023-03-17T02:33:00.944Z,31.8
2023-03-17T02:34:00.805Z,31.8
2023-03-17T02:35:01.061Z,25.8
2023-03-17T02:36:00.684Z,25.8
2023-03-17T02:37:00.692Z,25.8
2023-03-17T02:38:00.544Z,25.8
2023-03-17T02:39:00.545Z,25.8
2023-03-17T02:40:00.979Z,26.7
2023-03-17T02:41:00.594Z,26.7
2023-03-17T02:42:00.724Z,26.7
2023-03-17T02:43:01.401Z,26.7
2023-03-17T02:44:00.951Z,26.7
2023-03-17T02:45:00.560Z,27.6
2023-03-17T02:46:01.142Z,27.6
2023-03-17T02:47:01.200Z,27.6
2023-03-17T02:48:00.803Z,27.6
2023-03-17T02:49:01.221Z,27.6
2023-03-17T02:50:01.109Z,27.0
2023-03-17T02:51:00.550Z,27.0
2023-03-17T02:52:00.702Z,27.0
2023-03-17T02:53:00.628Z,27.0
2023-03-17T02:54:00.533Z,27.0
2023-03-17T02:55:00.556Z,24.1
2023-03-17T02:56:00.624Z,24.1
2023-03-17T02:57:01.035Z,24.1
2023-03-17T02:58:00.878Z,24.1
2023-03-17T02:59:00.530Z,24.1
2023-03-17T03:00:02.466Z,22.2
2023-03-17T03:01:00.584Z,22.2
2023-03-17T03:02:00.817Z,22.2
2023-03-17T03:03:00.574Z,22.2
2023-03-17T03:04:00.576Z,22.2
2023-03-17T03:05:00.536Z,24.7
2023-03-17T03:06:03.015Z,24.7
2023-03-17T03:07:00.633Z,24.7
2023-03-17T03:08:00.545Z,24.7
2023-03-17T03:09:00.623Z,24.7
2023-03-17T03:10:00.866Z,23.4
2023-03-17T03:11:00.877Z,23.4
2023-03-17T03:12:01.005Z,23.4
2023-03-17T03:13:00.572Z,23.4
2023-03-17T03:14:00.564Z,23.4
2023-03-17T03:15:00.544Z,23.2
2023-03-17T03:16:00.702Z,23.2
2023-03-17T03:17:00.538Z,23.2
2023-03-17T03:18:00.553Z,23.2
2023-03-17T03:19:00.540Z,23.2
2023-03-17T03:20:00.721Z,23.0
2023-03-17T03:21:00.550Z,23.0
2023-03-17T03:22:00.579Z,23.0
2023-03-17T03:23:00.682Z,23.0
2023-03-17T03:24:00.575Z,23.0
2023-03-17T03:25:00.670Z,20.0
2023-03-17T03:26:01.054Z,20.0
2023-03-17T03:27:00.585Z,20.0
2023-03-17T03:28:00.593Z,20.0
2023-03-17T03:29:00.566Z,20.0
2023-03-17T03:30:00.663Z,23.4
2023-03-17T03:31:00.758Z,23.4
2023-03-17T03:32:00.583Z,23.4
2023-03-17T03:33:00.828Z,23.4
2023-03-17T03:34:00.529Z,23.4
2023-03-17T03:35:00.701Z,23.6
2023-03-17T03:36:00.873Z,23.6
2023-03-17T03:37:00.593Z,23.6
2023-03-17T03:38:00.617Z,23.6
2023-03-17T03:39:00.576Z,23.6
2023-03-17T03:40:00.683Z,21.5
2023-03-17T03:41:00.895Z,21.5
2023-03-17T03:42:00.549Z,21.5
2023-03-17T03:43:02.446Z,21.5
2023-03-17T03:44:00.844Z,21.5
2023-03-17T03:45:00.523Z,19.9
2023-03-17T03:46:00.990Z,19.9
2023-03-17T03:47:00.555Z,19.9
2023-03-17T03:48:00.551Z,19.9
2023-03-17T03:49:00.579Z,19.9
2023-03-17T03:50:00.860Z,21.7
2023-03-17T03:51:02.063Z,21.7
2023-03-17T03:52:00.538Z,21.7
2023-03-17T03:53:00.597Z,21.7
2023-03-17T03:54:00.584Z,21.7
2023-03-17T03:55:00.560Z,21.8
2023-03-17T03:56:00.641Z,21.8
2023-03-17T03:57:00.539Z,21.8
2023-03-17T03:58:00.539Z,21.8
2023-03-17T03:59:00.547Z,21.8
2023-03-17T04:00:00.641Z,20.3
2023-03-17T04:01:05.448Z,20.3
2023-03-17T04:02:00.542Z,20.3
2023-03-17T04:03:00.595Z,20.3
2023-03-17T04:04:01.091Z,20.3
2023-03-17T04:05:00.605Z,19.7
2023-03-17T04:06:00.578Z,19.7
2023-03-17T04:07:00.620Z,19.7
2023-03-17T04:08:00.525Z,19.7
2023-03-17T04:09:00.597Z,19.7
2023-03-17T04:10:00.716Z,21.2
2023-03-17T04:11:00.583Z,21.2
2023-03-17T04:12:00.821Z,21.2
2023-03-17T04:13:00.576Z,21.2
2023-03-17T04:14:00.572Z,21.2
2023-03-17T04:15:00.640Z,23.2
2023-03-17T04:16:00.618Z,23.2
2023-03-17T04:17:00.529Z,23.2
2023-03-17T04:18:00.588Z,23.2
2023-03-17T04:19:00.666Z,23.2
2023-03-17T04:20:00.600Z,20.6
2023-03-17T04:21:00.555Z,20.6
2023-03-17T04:22:00.561Z,20.6
2023-03-17T04:23:00.568Z,20.6
2023-03-17T04:24:00.568Z,20.6
2023-03-17T04:25:00.589Z,23.6
2023-03-17T04:26:00.600Z,23.6
2023-03-17T04:27:00.720Z,23.6
2023-03-17T04:28:00.574Z,23.6
2023-03-17T04:29:00.568Z,23.6
2023-03-17T04:30:00.603Z,18.7
2023-03-17T04:31:00.563Z,18.7
2023-03-17T04:32:01.310Z,18.7
2023-03-17T04:33:00.646Z,18.7
2023-03-17T04:34:00.631Z,18.7
2023-03-17T04:35:00.739Z,19.5
2023-03-17T04:36:00.703Z,19.5
2023-03-17T04:37:00.562Z,19.5
2023-03-17T04:38:00.641Z,19.5
2023-03-17T04:39:00.550Z,19.5
2023-03-17T04:40:00.551Z,19.2
2023-03-17T04:41:00.583Z,19.2
2023-03-17T04:42:00.539Z,19.2
2023-03-17T04:43:03.330Z,19.2
2023-03-17T04:44:00.693Z,19.2
2023-03-17T04:45:00.643Z,19.9
2023-03-17T04:46:00.599Z,19.9
2023-03-17T04:47:00.598Z,19.9
2023-03-17T04:48:00.562Z,19.9
2023-03-17T04:49:00.831Z,19.9
2023-03-17T04:50:01.046Z,20.0
2023-03-17T04:51:00.618Z,20.0
2023-03-17T04:52:00.551Z,20.0
2023-03-17T04:53:00.594Z,20.0
2023-03-17T04:54:00.657Z,20.0
2023-03-17T04:55:00.559Z,24.3
2023-03-17T04:56:00.619Z,24.3
2023-03-17T04:57:00.561Z,24.3
2023-03-17T04:58:00.557Z,24.3
2023-03-17T04:59:01.155Z,24.3
2023-03-17T05:00:00.548Z,19.8
2023-03-17T05:01:00.598Z,19.8
2023-03-17T05:02:00.584Z,19.8
2023-03-17T05:03:00.559Z,19.8
2023-03-17T05:04:00.590Z,19.8
2023-03-17T05:05:00.594Z,21.0
2023-03-17T05:06:02.210Z,21.0
2023-03-17T05:07:01.540Z,21.0
2023-03-17T05:08:01.048Z,21.0
2023-03-17T05:09:00.569Z,21.0
2023-03-17T05:10:00.558Z,21.4
2023-03-17T05:11:00.560Z,21.4
2023-03-17T05:12:00.546Z,21.4
2023-03-17T05:13:00.539Z,21.4
2023-03-17T05:14:00.581Z,21.4
2023-03-17T05:15:00.530Z,21.5
2023-03-17T05:16:00.598Z,21.5
2023-03-17T05:17:00.543Z,21.5
2023-03-17T05:18:00.551Z,21.5
2023-03-17T05:19:00.561Z,21.5
2023-03-17T05:20:00.571Z,23.9
2023-03-17T05:21:00.622Z,23.9
2023-03-17T05:22:00.587Z,23.9
2023-03-17T05:23:00.531Z,23.9
2023-03-17T05:24:00.561Z,23.9
2023-03-17T05:25:00.536Z,23.6
2023-03-17T05:26:00.957Z,23.6
2023-03-17T05:27:00.569Z,23.6
2023-03-17T05:28:00.574Z,23.6
2023-03-17T05:29:00.573Z,23.6
2023-03-17T05:30:00.611Z,21.5
2023-03-17T05:31:00.718Z,21.5
2023-03-17T05:32:00.534Z,21.5
2023-03-17T05:33:00.575Z,21.5
2023-03-17T05:34:00.802Z,21.5
2023-03-17T05:35:00.540Z,23.6
2023-03-17T05:36:00.735Z,23.6
2023-03-17T05:37:00.522Z,23.6
2023-03-17T05:38:00.551Z,23.6
2023-03-17T05:39:00.579Z,23.6
2023-03-17T05:40:00.616Z,22.7
2023-03-17T05:41:00.574Z,22.7
2023-03-17T05:42:00.631Z,22.7
2023-03-17T05:43:00.705Z,22.7
2023-03-17T05:44:00.609Z,22.7
2023-03-17T05:45:00.571Z,25.4
2023-03-17T05:46:00.671Z,25.4
2023-03-17T05:47:00.553Z,25.4
2023-03-17T05:48:00.586Z,25.4
2023-03-17T05:49:00.539Z,25.4
2023-03-17T05:50:01.517Z,21.5
2023-03-17T05:51:00.606Z,21.5
2023-03-17T05:52:00.585Z,21.5
2023-03-17T05:53:00.555Z,21.5
2023-03-17T05:54:00.560Z,21.5
2023-03-17T05:55:00.514Z,23.2
2023-03-17T05:56:00.773Z,23.2
2023-03-17T05:57:00.527Z,23.2
2023-03-17T05:58:00.628Z,23.2
2023-03-17T05:59:00.576Z,23.2
2023-03-17T06:00:00.697Z,23.4
2023-03-17T06:01:00.584Z,23.4
2023-03-17T06:02:00.607Z,23.4
2023-03-17T06:03:00.616Z,23.4
2023-03-17T06:04:00.556Z,23.4
2023-03-17T06:05:00.546Z,26.7
2023-03-17T06:06:00.575Z,26.7
2023-03-17T06:07:00.540Z,26.7
2023-03-17T06:08:00.761Z,26.7
2023-03-17T06:09:00.628Z,26.7
2023-03-17T06:10:00.843Z,22.3
2023-03-17T06:11:00.553Z,22.3
2023-03-17T06:12:00.774Z,22.3
2023-03-17T06:13:03.366Z,22.3
2023-03-17T06:14:00.541Z,22.3
2023-03-17T06:15:00.600Z,22.5
2023-03-17T06:16:00.626Z,22.5
2023-03-17T06:17:00.948Z,22.5
2023-03-17T06:18:00.728Z,22.5
2023-03-17T06:19:00.563Z,22.5
2023-03-17T06:20:00.598Z,27.0
2023-03-17T06:21:00.553Z,27.0
2023-03-17T06:22:00.582Z,27.0
2023-03-17T06:23:05.008Z,27.0
2023-03-17T06:24:00.541Z,27.0
2023-03-17T06:25:00.579Z,24.8
2023-03-17T06:26:00.590Z,24.8
2023-03-17T06:27:00.708Z,24.8
2023-03-17T06:28:00.933Z,24.8
2023-03-17T06:29:00.539Z,24.8
2023-03-17T06:30:00.562Z,27.4
2023-03-17T06:31:00.638Z,27.4
2023-03-17T06:32:17.131Z,27.4
2023-03-17T06:33:01.550Z,27.4
2023-03-17T06:34:00.559Z,27.4
2023-03-17T06:35:03.205Z,27.3
2023-03-17T06:36:00.881Z,27.3
2023-03-17T06:37:00.557Z,27.3
2023-03-17T06:38:01.094Z,27.3
2023-03-17T06:39:00.705Z,27.3
2023-03-17T06:40:00.590Z,30.5
2023-03-17T06:41:00.557Z,30.5
2023-03-17T06:42:00.556Z,30.5
2023-03-17T06:43:00.940Z,30.5
2023-03-17T06:44:00.559Z,30.5
2023-03-17T06:45:00.937Z,28.2
2023-03-17T06:46:00.800Z,28.2
2023-03-17T06:47:00.870Z,28.2
2023-03-17T06:48:00.688Z,28.2
2023-03-17T06:49:01.226Z,28.2
2023-03-17T06:50:00.531Z,33.0
2023-03-17T06:51:00.869Z,33.0
2023-03-17T06:52:00.611Z,33.0
2023-03-17T06:53:00.539Z,33.0
2023-03-17T06:54:00.718Z,33.0
2023-03-17T06:55:00.639Z,30.2
2023-03-17T06:56:00.838Z,30.2
2023-03-17T06:57:00.583Z,30.2
2023-03-17T06:58:00.542Z,30.2
2023-03-17T06:59:00.563Z,30.2
2023-03-17T07:00:00.796Z,30.1
2023-03-17T07:01:00.563Z,30.1
2023-03-17T07:02:00.695Z,30.1
2023-03-17T07:03:00.561Z,30.1
2023-03-17T07:04:00.529Z,30.1
2023-03-17T07:05:00.932Z,27.8
2023-03-17T07:06:00.887Z,27.8
2023-03-17T07:07:00.532Z,27.8
2023-03-17T07:08:00.569Z,27.8
2023-03-17T07:09:02.297Z,27.8
2023-03-17T07:10:00.584Z,28.8
2023-03-17T07:11:00.997Z,28.8
2023-03-17T07:12:01.215Z,28.8
2023-03-17T07:13:00.530Z,28.8
2023-03-17T07:14:00.729Z,28.8
2023-03-17T07:15:00.545Z,29.9
2023-03-17T07:16:01.029Z,29.9
2023-03-17T07:17:01.175Z,29.9
2023-03-17T07:18:01.107Z,29.9
2023-03-17T07:19:00.527Z,29.9
2023-03-17T07:20:00.670Z,29.4
2023-03-17T07:21:01.179Z,29.4
2023-03-17T07:22:00.596Z,29.4
2023-03-17T07:23:00.539Z,29.4
2023-03-17T07:24:00.595Z,29.4
2023-03-17T07:25:00.711Z,29.9
2023-03-17T07:26:01.109Z,29.9
2023-03-17T07:27:00.604Z,29.9
2023-03-17T07:28:00.540Z,29.9
2023-03-17T07:29:00.592Z,29.9
2023-03-17T07:30:00.812Z,24.9
2023-03-17T07:31:01.042Z,24.9
2023-03-17T07:32:00.742Z,24.9
2023-03-17T07:33:00.583Z,24.9
2023-03-17T07:34:00.593Z,24.9
2023-03-17T07:35:00.622Z,27.5
2023-03-17T07:36:00.673Z,27.5
2023-03-17T07:37:01.043Z,27.5
2023-03-17T07:38:00.558Z,27.5
2023-03-17T07:39:00.643Z,27.5
2023-03-17T07:40:00.616Z,25.8
2023-03-17T07:41:00.548Z,25.8
2023-03-17T07:42:01.006Z,25.8
2023-03-17T07:43:00.855Z,25.8
2023-03-17T07:44:00.531Z,25.8
2023-03-17T07:45:00.796Z,25.6
2023-03-17T07:46:00.603Z,25.6
2023-03-17T07:47:00.560Z,25.6
2023-03-17T07:48:02.528Z,25.6
2023-03-17T07:49:00.582Z,25.6
2023-03-17T07:50:00.661Z,27.0
2023-03-17T07:51:00.564Z,27.0
2023-03-17T07:52:00.595Z,27.0
2023-03-17T07:53:00.741Z,27.0
2023-03-17T07:54:00.736Z,27.0
2023-03-17T07:55:00.715Z,24.9
2023-03-17T07:56:00.556Z,24.9
2023-03-17T07:57:00.521Z,24.9
2023-03-17T07:58:00.565Z,24.9
2023-03-17T07:59:00.660Z,24.9
2023-03-17T08:00:00.613Z,26.8
2023-03-17T08:01:00.851Z,26.8
2023-03-17T08:02:00.999Z,26.8
2023-03-17T08:03:09.886Z,26.8
2023-03-17T08:04:00.630Z,26.8
2023-03-17T08:05:00.746Z,24.5
2023-03-17T08:06:00.560Z,24.5
2023-03-17T08:07:00.604Z,24.5
2023-03-17T08:08:00.539Z,24.5
2023-03-17T08:09:00.606Z,24.5
2023-03-17T08:10:00.596Z,24.4
2023-03-17T08:11:02.685Z,24.4
2023-03-17T08:12:00.551Z,24.4
2023-03-17T08:13:00.577Z,24.4
2023-03-17T08:14:00.866Z,24.0
2023-03-17T08:15:00.554Z,24.0
2023-03-17T08:16:00.610Z,24.0
2023-03-17T08:17:00.689Z,24.0
2023-03-17T08:18:00.560Z,24.0
2023-03-17T08:19:00.554Z,22.5
2023-03-17T08:20:01.215Z,22.5
2023-03-17T08:21:00.554Z,22.5
2023-03-17T08:22:00.577Z,22.5
2023-03-17T08:23:01.004Z,22.5
2023-03-17T08:24:00.601Z,19.3
2023-03-17T08:25:00.706Z,19.3
2023-03-17T08:26:03.341Z,19.3
2023-03-17T08:27:01.048Z,19.3
2023-03-17T08:28:00.549Z,19.3
2023-03-17T08:29:00.683Z,23.0
2023-03-17T08:30:01.589Z,23.0
2023-03-17T08:31:13.321Z,23.0
2023-03-17T08:32:00.606Z,23.0
2023-03-17T08:33:00.649Z,23.0
2023-03-17T08:34:01.123Z,21.5
2023-03-17T08:35:00.657Z,21.5
2023-03-17T08:36:05.527Z,21.5
2023-03-17T08:37:01.166Z,21.5
2023-03-17T08:38:00.651Z,21.5
2023-03-17T08:39:00.870Z,21.5
2023-03-17T08:40:00.585Z,21.5
2023-03-17T08:41:02.545Z,21.5
2023-03-17T08:42:00.656Z,21.5
2023-03-17T08:43:00.562Z,21.5
2023-03-17T08:44:00.546Z,20.0
2023-03-17T08:45:00.585Z,20.0
2023-03-17T08:46:08.433Z,20.0
2023-03-17T08:47:01.849Z,20.0
2023-03-17T08:48:00.530Z,20.0
2023-03-17T08:49:00.857Z,19.4
2023-03-17T08:50:00.714Z,19.4
2023-03-17T08:51:00.895Z,19.4
2023-03-17T08:52:00.716Z,19.4
2023-03-17T08:53:00.608Z,19.4
2023-03-17T08:54:01.908Z,17.5
2023-03-17T08:55:00.895Z,17.5
2023-03-17T08:56:01.367Z,17.5
2023-03-17T08:57:00.551Z,17.5
2023-03-17T08:58:00.553Z,17.5
2023-03-17T08:59:00.526Z,17.2
2023-03-17T09:00:00.825Z,17.2
2023-03-17T09:01:02.724Z,17.2
2023-03-17T09:02:00.615Z,17.2
2023-03-17T09:03:00.613Z,17.2
2023-03-17T09:04:01.342Z,17.5
2023-03-17T09:05:00.560Z,17.5
2023-03-17T09:06:00.861Z,17.5
2023-03-17T09:07:04.019Z,17.5
2023-03-17T09:08:00.708Z,17.5
2023-03-17T09:09:00.575Z,16.4
2023-03-17T09:10:00.752Z,16.4
2023-03-17T09:11:00.718Z,16.4
2023-03-17T09:12:02.122Z,16.4
2023-03-17T09:13:00.880Z,16.4
2023-03-17T09:14:00.585Z,13.2
2023-03-17T09:15:00.585Z,13.2
2023-03-17T09:16:00.595Z,13.2
2023-03-17T09:17:00.553Z,13.2
2023-03-17T09:18:01.239Z,13.2
2023-03-17T09:19:00.582Z,13.8
2023-03-17T09:20:00.655Z,13.8
2023-03-17T09:21:00.780Z,13.8
2023-03-17T09:22:01.690Z,13.8
2023-03-17T09:23:04.206Z,13.8
2023-03-17T09:24:02.559Z,13.3
2023-03-17T09:25:00.518Z,13.3
2023-03-17T09:26:00.813Z,13.3
2023-03-17T09:27:00.551Z,13.3
2023-03-17T09:28:00.730Z,13.3
2023-03-17T09:29:02.530Z,13.9
2023-03-17T09:30:00.531Z,13.9
2023-03-17T09:31:03.258Z,13.9
2023-03-17T09:32:00.641Z,13.9
2023-03-17T09:33:00.712Z,13.9
2023-03-17T09:34:00.715Z,14.2
2023-03-17T09:35:00.565Z,14.2
2023-03-17T09:36:00.573Z,14.2
2023-03-17T09:37:00.556Z,14.2
2023-03-17T09:38:00.751Z,14.2
2023-03-17T09:39:00.593Z,13.3
2023-03-17T09:40:00.718Z,13.3
2023-03-17T09:41:20.491Z,13.3
2023-03-17T09:42:17.766Z,13.3
2023-03-17T09:43:10.475Z,13.3
2023-03-17T09:44:17.770Z,13.5
2023-03-17T09:45:10.582Z,13.5
2023-03-17T09:46:18.953Z,13.5
2023-03-17T09:47:20.460Z,13.5
2023-03-17T09:48:05.194Z,13.5
2023-03-17T09:49:03.077Z,12.4
2023-03-17T09:50:08.041Z,12.4
2023-03-17T09:51:06.928Z,12.4
2023-03-17T09:52:00.713Z,12.4
2023-03-17T09:53:04.088Z,12.4
2023-03-17T09:54:05.565Z,11.7
2023-03-17T09:55:03.991Z,11.7
2023-03-17T09:56:07.591Z,11.7
2023-03-17T09:57:11.784Z,11.7
2023-03-17T09:58:01.153Z,11.7
2023-03-17T09:59:05.083Z,12.0
2023-03-17T10:00:04.579Z,12.0
2023-03-17T10:01:01.842Z,12.0
2023-03-17T10:02:00.977Z,12.0
2023-03-17T10:03:00.526Z,12.0
2023-03-17T10:04:01.133Z,10.4
2023-03-17T10:05:16.346Z,10.4
2023-03-17T10:06:16.500Z,10.4
2023-03-17T10:07:03.841Z,10.4
2023-03-17T10:08:26.997Z,10.4
2023-03-17T10:09:11.542Z,12.3
2023-03-17T10:10:04.141Z,12.3
2023-03-17T10:11:08.685Z,12.3
2023-03-17T10:12:16.655Z,12.3
2023-03-17T10:13:20.436Z,12.3
2023-03-17T10:14:06.803Z,12.4
2023-03-17T10:15:03.852Z,12.4
2023-03-17T10:16:06.270Z,12.4
2023-03-17T10:17:05.069Z,12.4
2023-03-17T10:18:07.553Z,12.4
2023-03-17T10:19:20.450Z,12.4
2023-03-17T10:20:15.436Z,12.4
2023-03-17T10:21:04.123Z,12.4
2023-03-17T10:22:11.413Z,12.4
2023-03-17T10:23:05.724Z,12.4
2023-03-17T10:24:03.058Z,8.8
2023-03-17T10:25:06.041Z,8.8
2023-03-17T10:26:15.991Z,8.8
2023-03-17T10:27:04.799Z,8.8
2023-03-17T10:28:10.654Z,8.8
2023-03-17T10:29:01.370Z,8.4
2023-03-17T10:30:00.586Z,8.4
2023-03-17T10:31:13.733Z,8.4
2023-03-17T10:32:00.621Z,8.4
2023-03-17T10:33:03.282Z,8.4
2023-03-17T10:34:11.958Z,9.1
2023-03-17T10:35:00.612Z,9.1
2023-03-17T10:36:09.142Z,9.1
2023-03-17T10:37:04.579Z,9.1
2023-03-17T10:38:14.317Z,9.1
2023-03-17T10:39:02.970Z,8.6
2023-03-17T10:40:03.380Z,8.6
2023-03-17T10:41:06.260Z,8.6
2023-03-17T10:42:11.468Z,8.6
2023-03-17T10:43:03.813Z,8.6
2023-03-17T10:44:01.156Z,8.1
2023-03-17T10:45:20.444Z,8.1
2023-03-17T10:46:03.457Z,8.1
2023-03-17T10:47:00.899Z,8.1
2023-03-17T10:48:01.778Z,8.1
2023-03-17T10:49:07.467Z,8.3
2023-03-17T10:50:20.484Z,8.3
2023-03-17T10:51:07.486Z,8.3
2023-03-17T10:52:05.755Z,8.3
2023-03-17T10:53:06.587Z,8.3
2023-03-17T10:54:01.948Z,10.3
2023-03-17T10:55:04.051Z,10.3
2023-03-17T10:56:16.761Z,10.3
2023-03-17T10:57:06.117Z,10.3
2023-03-17T10:58:04.303Z,10.3
2023-03-17T10:59:06.106Z,8.6
2023-03-17T11:00:01.055Z,8.6
2023-03-17T11:01:20.577Z,8.6
2023-03-17T11:02:14.534Z,8.6
2023-03-17T11:03:10.229Z,8.6
2023-03-17T11:04:00.619Z,7.7
2023-03-17T11:05:05.725Z,7.7
2023-03-17T11:06:03.130Z,7.7
2023-03-17T11:07:08.015Z,7.7
2023-03-17T11:08:16.552Z,7.7
2023-03-17T11:09:06.612Z,6.6
2023-03-17T11:10:01.985Z,6.6
2023-03-17T11:11:05.302Z,6.6
2023-03-17T11:12:05.114Z,6.6
2023-03-17T11:13:01.404Z,6.6
2023-03-17T11:14:04.314Z,7.9
2023-03-17T11:15:03.327Z,7.9
2023-03-17T11:16:17.749Z,7.9
2023-03-17T11:17:03.556Z,7.9
2023-03-17T11:18:03.448Z,7.9
2023-03-17T11:19:02.153Z,8.3
2023-03-17T11:20:10.647Z,8.3
2023-03-17T11:21:05.971Z,8.3
2023-03-17T11:22:09.814Z,8.3
2023-03-17T11:23:08.308Z,8.3
2023-03-17T11:24:09.412Z,9.0
2023-03-17T11:25:08.750Z,9.0
2023-03-17T11:26:17.916Z,9.0
2023-03-17T11:27:06.231Z,9.0
2023-03-17T11:28:10.410Z,9.0
2023-03-17T11:29:11.516Z,6.3
2023-03-17T11:30:02.605Z,6.3
2023-03-17T11:31:06.926Z,6.3
2023-03-17T11:32:13.781Z,6.3
2023-03-17T11:33:12.544Z,6.3
2023-03-17T11:34:15.699Z,8.0
2023-03-17T11:35:20.498Z,8.0
2023-03-17T11:36:11.338Z,8.0
2023-03-17T11:37:06.264Z,8.0
2023-03-17T11:38:11.170Z,8.0
2023-03-17T11:39:13.630Z,6.6
2023-03-17T11:40:20.442Z,6.6
2023-03-17T11:41:07.965Z,6.6
2023-03-17T11:42:17.059Z,6.6
2023-03-17T11:43:10.493Z,6.6
2023-03-17T11:44:13.529Z,7.7
2023-03-17T11:45:18.527Z,7.7
2023-03-17T11:46:11.711Z,7.7
2023-03-17T11:47:07.514Z,7.7
2023-03-17T11:48:15.523Z,7.7
2023-03-17T11:49:15.908Z,8.9
2023-03-17T11:50:18.085Z,8.9
2023-03-17T11:51:17.266Z,8.9
2023-03-17T11:52:18.483Z,8.9
2023-03-17T11:53:15.813Z,8.9
2023-03-17T11:54:11.887Z,5.5
2023-03-17T11:55:11.142Z,5.5
2023-03-17T11:56:04.684Z,5.5
2023-03-17T11:57:04.658Z,5.5
2023-03-17T11:58:05.356Z,5.5
2023-03-17T11:59:08.196Z,7.7
2023-03-17T12:00:06.163Z,7.7
2023-03-17T12:01:04.254Z,7.7
2023-03-17T12:02:09.676Z,7.7
2023-03-17T12:03:03.829Z,7.7
2023-03-17T12:04:20.541Z,7.3
2023-03-17T12:05:04.929Z,7.3
2023-03-17T12:06:03.627Z,7.3
2023-03-17T12:07:06.732Z,7.3
2023-03-17T12:08:10.524Z,7.3
2023-03-17T12:09:20.449Z,8.0
2023-03-17T12:10:13.890Z,8.0
2023-03-17T12:11:05.851Z,8.0
2023-03-17T12:12:02.791Z,8.0
2023-03-17T12:13:07.748Z,8.0
2023-03-17T12:14:06.214Z,6.4
2023-03-17T12:15:02.183Z,6.4
2023-03-17T12:16:20.435Z,6.4
2023-03-17T12:17:04.739Z,6.4
2023-03-17T12:18:10.039Z,6.4
2023-03-17T12:19:10.220Z,7.7
2023-03-17T12:20:10.499Z,7.7
2023-03-17T12:21:15.154Z,7.7
2023-03-17T12:22:06.063Z,7.7
2023-03-17T12:23:09.190Z,7.7
2023-03-17T12:24:05.018Z,7.4
2023-03-17T12:25:13.790Z,7.4
2023-03-17T12:26:09.788Z,7.4
2023-03-17T12:27:08.044Z,7.4
2023-03-17T12:28:13.769Z,7.4
2023-03-17T12:29:10.723Z,7.9
2023-03-17T12:30:13.756Z,7.9
2023-03-17T12:31:05.287Z,7.9
2023-03-17T12:32:06.320Z,7.9
2023-03-17T12:33:16.007Z,7.9
2023-03-17T12:34:10.489Z,9.8
2023-03-17T12:35:20.437Z,9.8
2023-03-17T12:36:02.640Z,9.8
2023-03-17T12:37:01.288Z,9.8
2023-03-17T12:38:15.382Z,9.8
2023-03-17T12:39:07.786Z,7.9
2023-03-17T12:40:05.857Z,7.9
2023-03-17T12:41:04.818Z,7.9
2023-03-17T12:42:11.547Z,7.9
2023-03-17T12:43:13.772Z,7.9
2023-03-17T12:44:03.796Z,8.8
2023-03-17T12:45:20.317Z,8.8
2023-03-17T12:46:17.909Z,8.8
2023-03-17T12:47:13.631Z,8.8
2023-03-17T12:48:04.819Z,8.8
2023-03-17T12:49:10.482Z,6.9
2023-03-17T12:50:18.943Z,6.9
2023-03-17T12:51:20.431Z,6.9
2023-03-17T12:52:20.481Z,6.9
2023-03-17T12:53:11.500Z,6.9
2023-03-17T12:54:00.716Z,7.2
2023-03-17T12:55:04.903Z,7.2
2023-03-17T12:56:09.002Z,7.2
2023-03-17T12:57:11.530Z,7.2
2023-03-17T12:58:03.594Z,7.2
2023-03-17T12:59:06.894Z,7.4
2023-03-17T13:00:14.092Z,7.4
2023-03-17T13:01:13.771Z,7.4
2023-03-17T13:02:13.994Z,7.4
2023-03-17T13:03:20.560Z,7.4
2023-03-17T13:04:15.177Z,8.1
2023-03-17T13:05:08.635Z,8.1
2023-03-17T13:06:03.754Z,8.1
2023-03-17T13:07:10.397Z,8.1
2023-03-17T13:08:04.832Z,8.1
2023-03-17T13:09:20.476Z,8.7
2023-03-17T13:10:00.506Z,8.7
2023-03-17T13:11:13.883Z,8.7
2023-03-17T13:12:02.402Z,8.7
2023-03-17T13:13:05.966Z,8.7
2023-03-17T13:14:03.802Z,8.1
2023-03-17T13:15:00.824Z,8.1
2023-03-17T13:16:04.413Z,8.1
2023-03-17T13:17:03.867Z,8.1
2023-03-17T13:18:11.535Z,8.1
2023-03-17T13:19:20.482Z,7.9
2023-03-17T13:20:08.062Z,7.9
2023-03-17T13:21:00.513Z,7.9
2023-03-17T13:22:03.811Z,7.9
2023-03-17T13:23:12.683Z,7.9
2023-03-17T13:24:20.259Z,7.3